Latest Weather Observations for Horsham AWS

IDV60801

Issued at 10:35 pm EST Wednesday 23 April 2014 (issued every 30 minutes, with the page automatically refreshed every 10 minutes)

About weather observations | Map of weather stations | Latest weather observations for VIC | Other Formats
Station Details ID: 079100 Name: HORSHAM AERODROME Lat: -36.67 Lon: 142.17 Height: 133.8 m
Data from the previous 72 hours. | See also: Recent months at Horsham AWS
Date/Time
EST
Temp
°C
App
Temp
°C
Dew
Point
Rel
Hum
%
Delta-T
°C
Wind Press
QNH
hPa
Press
MSL
hPa
Rain
since 9 am
mm
Dir
 
Spd
km/h
Gust
km/h
Spd
kts
Gust
kts
23/10:30pm 9.8 6.3 3.5 65 2.8 NNW 11 13 6 7 1014.0 - 0.0
23/10:00pm 10.1 6.6 3.6 64 2.9 NNW 11 13 6 7 1014.3 - 0.0
23/09:30pm 10.8 7.7 3.6 61 3.2 NW 9 9 5 5 1014.3 - 0.0
23/09:00pm 10.9 7.1 3.7 61 3.2 NNW 13 15 7 8 1014.3 1014.2 0.0
23/08:30pm 10.5 6.7 3.8 63 3.0 NNW 13 15 7 8 1014.5 - 0.0
23/08:00pm 11.5 8.1 4.0 60 3.4 NNW 11 13 6 7 1014.5 - 0.0
23/07:30pm 11.9 8.9 3.9 58 3.6 NNW 9 11 5 6 1014.4 - 0.0
23/07:00pm 12.1 8.2 3.3 55 3.9 NW 13 15 7 8 1014.3 - 0.0
23/06:30pm 12.9 8.7 3.6 53 4.2 NW 15 17 8 9 1013.9 - 0.0
23/06:00pm 14.1 10.2 3.6 49 4.8 NW 13 15 7 8 1013.7 1013.7 0.0
23/05:30pm 16.9 13.0 3.6 41 6.2 WNW 13 15 7 8 1013.5 - 0.0
23/05:00pm 18.8 14.0 2.6 34 7.5 NW 17 24 9 13 1013.4 - 0.0
23/04:30pm 19.2 14.5 3.4 35 7.5 WNW 17 24 9 13 1013.7 - 0.0
23/04:00pm 18.9 14.2 3.1 35 7.4 NW 17 22 9 12 1013.8 - 0.0
23/03:30pm 18.9 14.9 4.7 39 6.9 WNW 15 20 8 11 1014.0 - 0.0
23/03:00pm 19.3 15.6 4.6 38 7.1 NW 13 20 7 11 1014.2 1014.1 0.0
23/02:30pm 19.9 15.9 4.8 37 7.4 WNW 15 22 8 12 1014.6 - 0.0
23/02:00pm 18.7 14.9 5.9 43 6.3 WNW 15 22 8 12 1014.9 - 0.0
23/01:30pm 18.2 13.6 5.4 43 6.3 NW 19 24 10 13 1015.2 - 0.0
23/01:00pm 18.1 14.0 6.0 45 6.0 WNW 17 24 9 13 1015.8 - 0.0
23/12:30pm 17.1 13.1 5.1 45 5.8 WNW 15 20 8 11 1016.3 - 0.0
23/12:00pm 16.6 13.6 5.9 49 5.2 WSW 11 19 6 10 1016.7 1016.6 0.0
23/11:30am 16.3 12.8 5.3 48 5.3 W 13 19 7 10 1017.5 - 0.0
23/11:00am 15.7 13.0 7.2 57 4.2 W 11 17 6 9 1017.9 - 0.0
23/10:30am 14.7 12.5 8.0 64 3.4 WNW 9 13 5 7 1018.0 - 0.0
23/10:00am 13.4 11.6 9.3 76 2.1 W 9 11 5 6 1018.3 - 0.0
23/09:30am 12.2 10.6 10.3 88 1.0 WSW 9 11 5 6 1018.3 - 0.0
23/09:00am 10.2 8.5 9.7 97 0.3 WSW 9 13 5 7 1018.3 1018.2 0.0
23/08:30am 8.2 6.4 7.9 98 0.1 SSW 7 9 4 5 1018.1 - 0.0
23/08:00am 5.6 3.2 5.3 98 0.1 SW 7 9 4 5 1017.7 - 0.0
23/07:54am 5.4 2.6 5.1 98 0.1 SW 9 13 5 7 1017.8 - 0.0
23/07:30am 4.3 0.1 3.9 97 0.2 WSW 15 19 8 10 1018.0 - 0.0
23/07:00am 3.5 -0.1 3.1 97 0.2 WSW 11 13 6 7 1017.4 - 0.0
23/06:59am 3.6 0.0 3.2 97 0.2 WSW 11 13 6 7 1017.4 - 0.0
23/06:30am 5.3 2.8 4.9 97 0.2 WSW 7 7 4 4 1017.2 - 0.0
23/06:00am 5.8 3.4 5.4 97 0.2 W 7 9 4 5 1017.1 1017.0 0.0
23/05:30am 4.8 2.2 4.2 96 0.3 WNW 7 48 4 26 1017.1 - 0.0
23/05:00am 3.2 1.6 2.5 95 0.3 CALM 0 0 0 0 1017.0 - 0.0
23/04:30am 4.4 1.9 3.5 94 0.4 W 6 7 3 4 1017.0 - 0.0
23/04:00am 7.1 4.6 6.4 95 0.3 WSW 9 11 5 6 1017.0 - 0.0
23/03:30am 6.2 3.1 5.6 96 0.3 WNW 11 13 6 7 1017.2 - 0.0
23/03:00am 4.2 1.0 3.2 93 0.4 NW 9 9 5 5 1017.4 1017.3 0.0
23/02:30am 4.4 2.9 2.8 89 0.7 CALM 0 0 0 0 1017.0 - 0.0
23/02:00am 7.4 5.2 6.0 91 0.6 SSW 7 9 4 5 1017.1 - 0.0
23/01:30am 6.5 5.4 5.3 92 0.5 CALM 0 0 0 0 1017.5 - 0.0
23/01:00am 6.2 3.9 4.8 91 0.6 SSE 6 6 3 3 1017.6 - 0.0
23/12:30am 6.8 3.3 5.3 90 0.7 SSW 13 15 7 8 1017.7 - 0.0
23/12:00am 8.2 5.2 6.0 86 1.0 SW 11 13 6 7 1017.7 1017.6 0.0
 
Date/Time
EST
Temp
°C
App
Temp
°C
Dew
Point
Rel
Hum
%
Delta-T
°C
Wind Press
QNH
hPa
Press
MSL
hPa
Rain
since 9 am
mm
Dir
 
Spd
km/h
Gust
km/h
Spd
kts
Gust
kts
22/11:30pm 9.1 6.6 6.4 83 1.3 WSW 9 11 5 6 1018.0 - 0.0
22/11:00pm 10.0 8.0 6.9 81 1.5 SSW 7 9 4 5 1018.2 - 0.0
22/10:30pm 10.1 7.7 6.8 80 1.6 S 9 11 5 6 1018.2 - 0.0
22/10:00pm 10.9 8.2 7.2 78 1.8 SSW 11 13 6 7 1018.0 - 0.0
22/09:30pm 10.9 7.7 7.0 77 1.9 S 13 13 7 7 1017.9 - 0.0
22/09:00pm 11.3 7.8 7.4 77 1.9 S 15 20 8 11 1017.8 1017.7 0.0
22/08:30pm 10.9 7.5 7.6 80 1.6 S 15 17 8 9 1017.5 - 0.0
22/08:00pm 12.0 7.9 7.7 75 2.1 SSW 19 20 10 11 1017.3 - 0.0
22/07:30pm 11.9 8.4 7.0 72 2.4 SSW 15 17 8 9 1017.1 - 0.0
22/07:00pm 13.1 9.7 7.5 69 2.8 SSW 15 15 8 8 1016.7 - 0.0
22/06:30pm 13.8 10.4 7.8 67 3.0 SSW 15 17 8 9 1016.4 - 0.0
22/06:00pm 15.1 11.7 7.6 61 3.7 SSW 15 17 8 9 1016.0 1015.9 0.0
22/05:30pm 16.9 13.2 7.8 55 4.6 SSW 17 20 9 11 1015.8 - 0.0
22/05:00pm 18.4 14.0 7.5 49 5.6 SSW 20 26 11 14 1015.4 - 0.0
22/04:30pm 19.2 14.6 8.2 49 5.7 SSW 22 30 12 16 1015.2 - 0.0
22/04:00pm 19.1 14.3 7.5 47 5.9 SSW 22 28 12 15 1015.2 - 0.0
22/03:30pm 19.7 15.1 8.1 47 6.0 SW 22 32 12 17 1014.9 - 0.0
22/03:00pm 19.9 15.7 8.3 47 6.1 SSW 20 30 11 16 1014.6 1014.5 0.0
22/02:30pm 20.0 15.5 8.7 48 6.0 SW 22 32 12 17 1014.3 - 0.0
22/02:00pm 19.5 15.5 10.5 56 4.9 SW 22 33 12 18 1014.3 - 0.0
22/01:30pm 19.1 15.8 11.7 62 4.1 SSW 20 28 11 15 1014.5 - 0.0
22/01:00pm 18.6 15.2 12.6 68 3.4 SW 22 30 12 16 1014.7 - 0.0
22/12:30pm 18.3 14.7 13.0 71 3.0 SW 24 28 13 15 1014.9 - 0.0
22/12:00pm 18.3 15.1 13.0 71 3.0 SW 22 30 12 16 1015.1 1015.0 0.0
22/11:30am 18.7 15.4 14.0 74 2.7 SSW 24 30 13 16 1015.3 - 0.0
22/11:00am 18.3 16.4 14.2 77 2.4 SW 17 22 9 12 1015.2 - 0.0
22/10:30am 18.6 16.4 14.3 76 2.5 SW 19 24 10 13 1015.1 - 0.0
22/10:00am 17.4 15.3 13.7 79 2.1 SW 17 22 9 12 1015.4 - 0.0
22/09:30am 16.9 16.5 14.0 83 1.7 S 9 13 5 7 1015.2 - 0.0
22/09:00am 15.6 14.4 14.1 91 0.9 S 13 15 7 8 1015.2 1015.1 1.4
22/08:30am 15.3 13.6 13.5 89 1.0 SW 15 19 8 10 1015.1 - 1.4
22/08:00am 14.8 13.4 13.3 91 0.8 NNE 13 15 7 8 1014.4 - 1.4
22/07:30am 14.6 15.5 13.0 90 0.9 CALM 0 2 0 1 1013.7 - 1.4
22/07:00am 14.7 14.5 12.9 89 1.0 W 6 9 3 5 1013.6 - 1.4
22/06:30am 14.7 14.5 12.9 89 1.0 NW 6 7 3 4 1013.2 - 1.4
22/06:00am 15.1 14.7 13.1 88 1.1 NW 7 9 4 5 1013.4 1013.4 1.4
22/05:30am 14.9 14.1 12.9 88 1.1 N 9 9 5 5 1012.9 - 1.0
22/05:00am 15.6 12.8 12.5 82 1.7 NNW 19 22 10 12 1013.0 - 1.0
22/04:30am 16.5 13.4 12.3 76 2.3 NNW 20 28 11 15 1012.8 - 1.0
22/04:00am 15.9 16.2 12.3 79 2.0 SW 2 6 1 3 1012.9 - 0.2
22/03:30am 16.8 13.1 11.5 71 2.9 W 22 32 12 17 1013.6 - 0.2
22/03:00am 16.9 14.8 11.0 68 3.2 NNW 13 15 7 8 1012.2 1012.1 0.0
22/02:30am 16.8 13.6 11.3 70 3.0 NW 19 24 10 13 1012.7 - 0.0
22/02:00am 17.6 13.9 9.5 59 4.3 NW 19 22 10 12 1012.1 - 0.0
22/01:30am 17.5 13.8 9.4 59 4.3 N 19 24 10 13 1011.5 - 0.0
22/01:00am 17.3 13.3 9.2 59 4.2 N 20 24 11 13 1012.0 - 0.0
22/12:30am 17.3 12.9 9.0 58 4.3 N 22 26 12 14 1012.1 - 0.0
22/12:00am 17.5 12.7 8.9 57 4.5 N 24 30 13 16 1012.0 1011.9 0.0
 
Date/Time
EST
Temp
°C
App
Temp
°C
Dew
Point
Rel
Hum
%
Delta-T
°C
Wind Press
QNH
hPa
Press
MSL
hPa
Rain
since 9 am
mm
Dir
 
Spd
km/h
Gust
km/h
Spd
kts
Gust
kts
21/11:30pm 17.0 12.2 8.7 58 4.3 N 24 28 13 15 1012.1 - 0.0
21/11:00pm 17.5 13.0 8.6 56 4.6 N 22 28 12 15 1012.3 - 0.0
21/10:30pm 17.9 13.1 8.7 55 4.8 N 24 28 13 15 1012.4 - 0.0
21/10:00pm 17.7 13.6 8.6 55 4.7 NNE 20 24 11 13 1012.5 - 0.0
21/09:30pm 17.5 13.3 8.4 55 4.7 NNE 20 24 11 13 1012.6 - 0.0
21/09:00pm 18.0 13.9 8.6 54 4.9 NNE 20 22 11 12 1012.8 1012.7 0.0
21/08:30pm 18.3 13.7 8.3 52 5.2 NNE 22 26 12 14 1012.9 - 0.0
21/08:00pm 19.1 13.8 8.4 50 5.6 NNE 26 32 14 17 1012.8 - 0.0
21/07:30pm 19.8 14.1 8.2 47 6.0 NNE 28 33 15 18 1012.8 - 0.0
21/07:00pm 20.5 14.4 8.2 45 6.4 NNE 30 35 16 19 1012.7 - 0.0
21/06:30pm 20.8 15.4 8.1 44 6.6 NNE 26 32 14 17 1012.7 - 0.0
21/06:00pm 20.7 15.6 7.7 43 6.8 NNE 24 28 13 15 1012.6 1012.5 0.0
21/05:30pm 21.9 16.3 7.3 39 7.6 NNE 26 35 14 19 1012.6 - 0.0
21/05:00pm 23.1 16.2 7.2 36 8.3 N 33 44 18 24 1012.4 - 0.0
21/04:30pm 23.7 16.0 7.3 35 8.6 N 37 48 20 26 1012.4 - 0.0
21/04:00pm 24.0 15.9 7.2 34 8.8 N 39 48 21 26 1012.7 - 0.0
21/03:30pm 24.1 16.0 6.8 33 9.0 N 39 52 21 28 1012.7 - 0.0
21/03:00pm 23.1 16.4 7.2 36 8.3 N 32 39 17 21 1013.5 1013.5 0.0
21/02:30pm 22.3 15.4 6.5 36 8.1 N 32 39 17 21 1013.8 - 0.0
21/02:00pm 22.5 15.5 6.7 36 8.1 N 33 43 18 23 1014.0 - 0.0
21/01:30pm 21.7 14.2 6.4 37 7.8 N 35 44 19 24 1014.4 - 0.0
21/01:00pm 22.3 14.7 5.7 34 8.4 N 35 44 19 24 1014.9 - 0.0
21/12:30pm 22.5 13.4 5.9 34 8.4 N 43 54 23 29 1015.3 - 0.0
21/12:00pm 20.8 11.4 5.2 36 7.7 N 44 52 24 28 1015.8 1015.7 0.0
21/11:30am 20.7 11.8 5.1 36 7.7 N 41 52 22 28 1016.2 - 0.0
21/11:00am 18.5 10.1 5.4 42 6.4 NNE 39 48 21 26 1016.7 - 0.0
21/10:30am 18.0 9.5 5.2 43 6.2 NNE 39 48 21 26 1016.9 - 0.0
21/10:00am 16.8 9.6 6.0 49 5.3 N 33 43 18 23 1017.2 - 0.0
21/09:30am 15.3 8.1 5.8 53 4.6 N 33 43 18 23 1017.7 - 0.0
21/09:00am 14.3 7.8 6.4 59 3.8 N 30 37 16 20 1018.0 1017.9 0.0
21/08:30am 11.7 7.0 6.0 68 2.7 NNE 20 24 11 13 1018.2 - 0.0
21/08:00am 10.6 6.8 6.0 73 2.1 N 15 20 8 11 1018.3 - 0.0
21/07:30am 9.5 5.3 5.9 78 1.7 NNE 17 20 9 11 1017.9 - 0.0
21/07:00am 8.9 5.1 5.6 80 1.5 N 15 17 8 9 1017.9 - 0.0
21/06:30am 9.0 5.3 6.1 82 1.3 NNE 15 19 8 10 1017.6 - 0.0
21/06:00am 9.5 5.0 6.2 80 1.5 NNE 19 20 10 11 1017.7 1017.6 0.0
21/05:30am 9.7 5.8 7.1 84 1.2 N 17 19 9 10 1017.8 - 0.0
21/05:00am 9.2 6.2 7.8 91 0.7 NNE 13 15 7 8 1017.6 - 0.0
21/04:30am 8.1 5.2 6.7 91 0.7 NNE 11 13 6 7 1017.6 - 0.0
21/04:00am 8.3 5.1 6.8 90 0.7 NNE 13 15 7 8 1017.3 - 0.0
21/03:30am 8.5 5.7 7.0 90 0.7 N 11 13 6 7 1017.5 - 0.0
21/03:00am 8.1 4.1 6.6 90 0.7 NNE 17 20 9 11 1017.2 1017.1 0.0
21/02:30am 8.4 5.2 6.7 89 0.8 N 13 13 7 7 1017.8 - 0.0
21/02:00am 8.7 5.1 6.8 88 0.9 NNE 15 17 8 9 1018.0 - 0.0
21/01:30am 9.1 5.6 7.4 89 0.8 NNE 15 17 8 9 1017.9 - 0.0
21/01:00am 8.9 5.7 7.0 88 0.9 N 13 19 7 10 1018.2 - 0.0
21/12:30am 9.5 7.5 6.2 80 1.5 WNW 6 7 3 4 1018.0 - 0.0
21/12:00am 11.2 8.7 8.4 83 1.4 WNW 11 11 6 6 1018.2 1018.1 0.0
 
Date/Time
EST
Temp
°C
App
Temp
°C
Dew
Point
Rel
Hum
%
Delta-T
°C
Wind Press
QNH
hPa
Press
MSL
hPa
Rain
since 9 am
mm
Dir
 
Spd
km/h
Gust
km/h
Spd
kts
Gust
kts
20/11:30pm 11.1 8.8 7.6 79 1.7 W 9 9 5 5 1018.2 - 0.0
20/11:00pm 13.0 11.4 8.7 75 2.2 W 7 9 4 5 1018.4 - 0.0

Other Formats:

Comma delimited format used in spreadsheet applications
http://www.bom.gov.au/fwo/IDV60801/IDV60801.95839.axf

JavaScript Object Notation format (JSON) in row-major order
http://www.bom.gov.au/fwo/IDV60801/IDV60801.95839.json